Time;durP1;ratioP1;P1;durP2;ratioP2;P2;SDS_P1;SDS_P2;PMS_P1;PMS_P2;Temp;Humidity;BMP_temperature;BMP_pressure;BME280_temperature;BME280_humidity;BME280_pressure;Samples;Min_cycle;Max_cycle;Signal;HPM_P1;HPM_P2
2022/04/24 00:00:13;;;;;;;7.03;5.77;;;8.70;99.90;;;;;;4867451;29;20725;-64
2022/04/24 00:02:43;;;;;;;7.70;6.40;;;8.60;99.90;;;;;;4860056;29;20250;-63
2022/04/24 00:05:11;;;;;;;6.60;5.90;;;8.60;99.90;;;;;;4869948;29;20245;-62
2022/04/24 00:07:39;;;;;;;7.57;6.13;;;8.50;99.90;;;;;;4859973;29;20252;-62
2022/04/24 00:10:10;;;;;;;8.87;6.13;;;8.50;99.90;;;;;;4867464;29;20298;-62
2022/04/24 00:12:38;;;;;;;8.80;6.27;;;8.50;99.90;;;;;;4859824;29;20743;-62
2022/04/24 00:15:08;;;;;;;9.97;6.33;;;8.50;99.90;;;;;;4869606;29;20773;-62
2022/04/24 00:17:38;;;;;;;7.73;6.07;;;8.50;99.90;;;;;;4872246;29;20239;-62
2022/04/24 00:20:09;;;;;;;9.33;6.10;;;8.40;99.90;;;;;;4869213;29;20245;-62
2022/04/24 00:22:37;;;;;;;6.53;5.87;;;8.40;99.90;;;;;;4877837;29;20266;-62
2022/04/24 00:25:06;;;;;;;9.30;6.50;;;8.40;99.90;;;;;;4870225;29;20265;-64
2022/04/24 00:27:36;;;;;;;8.07;6.63;;;8.40;99.90;;;;;;4860243;29;20299;-62
2022/04/24 00:30:05;;;;;;;9.03;6.30;;;8.40;99.90;;;;;;4868033;29;20337;-63
2022/04/24 00:32:33;;;;;;;8.53;5.87;;;8.40;99.90;;;;;;4877296;29;20724;-62
2022/04/24 00:35:01;;;;;;;8.73;6.33;;;8.40;99.90;;;;;;4870045;29;20241;-62
2022/04/24 00:37:31;;;;;;;7.80;6.20;;;8.30;99.90;;;;;;4860255;29;20241;-62
2022/04/24 00:39:59;;;;;;;7.80;6.37;;;8.20;99.90;;;;;;4868227;29;20233;-63
2022/04/24 00:42:29;;;;;;;9.27;6.27;;;8.20;99.90;;;;;;4860499;29;20706;-62
2022/04/24 00:44:57;;;;;;;9.33;6.43;;;8.20;99.90;;;;;;4867772;29;20234;-63
2022/04/24 00:47:41;;;;;;;9.67;6.07;;;8.10;99.90;;;;;;4869983;29;20322;-62
2022/04/24 00:50:10;;;;;;;10.83;6.60;;;8.20;99.90;;;;;;4869271;29;20743;-62
2022/04/24 00:52:40;;;;;;;9.47;5.93;;;8.10;99.90;;;;;;4861024;29;20242;-62
2022/04/24 00:55:08;;;;;;;8.83;6.57;;;8.00;99.90;;;;;;4862926;29;20278;-62
2022/04/24 00:57:37;;;;;;;9.73;6.43;;;8.00;99.90;;;;;;4877262;29;20246;-62
2022/04/24 01:00:07;;;;;;;8.17;5.70;;;8.00;99.90;;;;;;4866705;29;20252;-65
2022/04/24 01:02:39;;;;;;;9.77;6.43;;;8.10;99.90;;;;;;4858804;29;20298;-63
2022/04/24 01:05:09;;;;;;;7.00;5.77;;;8.00;99.90;;;;;;4868623;29;20242;-62
2022/04/24 01:07:38;;;;;;;6.70;5.93;;;8.00;99.90;;;;;;4860597;29;20242;-62
2022/04/24 01:10:08;;;;;;;8.63;6.53;;;7.90;99.90;;;;;;4868978;29;20265;-62
2022/04/24 01:12:37;;;;;;;8.27;5.57;;;8.00;99.90;;;;;;4859831;29;20318;-63
2022/04/24 01:15:06;;;;;;;8.60;6.47;;;8.00;99.90;;;;;;4868293;29;20765;-62
2022/04/24 01:17:35;;;;;;;11.17;6.57;;;8.00;99.90;;;;;;4866793;29;20242;-62
2022/04/24 01:20:03;;;;;;;12.00;6.83;;;7.90;99.90;;;;;;4870435;29;20330;-62
2022/04/24 01:22:33;;;;;;;8.30;7.10;;;8.00;99.90;;;;;;4876010;29;20301;-63
2022/04/24 01:25:01;;;;;;;9.47;6.30;;;8.00;99.90;;;;;;4868951;29;20253;-64
2022/04/24 01:27:29;;;;;;;8.87;6.70;;;8.00;99.90;;;;;;4859806;29;20623;-62
2022/04/24 01:29:57;;;;;;;7.60;5.90;;;7.90;99.90;;;;;;4854965;29;20657;-62
2022/04/24 01:32:25;;;;;;;10.43;6.60;;;8.00;99.90;;;;;;4856911;29;20234;-62
2022/04/24 01:34:53;;;;;;;10.87;7.17;;;8.00;99.90;;;;;;4850674;29;20302;-62
2022/04/24 01:37:21;;;;;;;9.37;6.73;;;7.90;99.90;;;;;;4842187;29;20247;-62
2022/04/24 01:39:54;;;;;;;10.70;7.27;;;8.00;99.90;;;;;;4855136;29;20329;-62
2022/04/24 01:42:24;;;;;;;9.03;6.57;;;7.90;99.90;;;;;;4846086;29;20707;-62
2022/04/24 01:44:52;;;;;;;11.13;7.50;;;7.90;99.90;;;;;;4850280;29;20334;-62
2022/04/24 01:47:20;;;;;;;9.50;6.43;;;7.80;99.90;;;;;;4853606;29;20337;-62
2022/04/24 01:49:48;;;;;;;9.60;7.57;;;7.90;99.90;;;;;;4856383;29;20704;-63
2022/04/24 01:52:16;;;;;;;12.93;7.33;;;7.90;99.90;;;;;;4855657;29;20253;-63
2022/04/24 01:54:45;;;;;;;11.97;7.50;;;7.90;99.90;;;;;;4853381;29;21384;-62
2022/04/24 01:57:15;;;;;;;10.80;7.67;;;7.80;99.90;;;;;;4855149;29;20238;-62
2022/04/24 01:59:44;;;;;;;10.63;7.70;;;7.80;99.90;;;;;;4850281;29;20967;-62
2022/04/24 02:02:12;;;;;;;10.07;7.33;;;7.80;99.90;;;;;;4842927;29;20251;-62
2022/04/24 02:04:40;;;;;;;10.83;7.03;;;7.80;99.90;;;;;;4841746;29;20234;-62
2022/04/24 02:07:09;;;;;;;9.93;7.30;;;7.80;99.90;;;;;;4843412;29;20250;-62
2022/04/24 02:09:38;;;;;;;10.37;7.37;;;7.80;99.90;;;;;;4855018;29;20243;-62
2022/04/24 02:12:07;;;;;;;12.20;7.20;;;7.80;99.90;;;;;;4858016;29;20246;-62
2022/04/24 02:14:37;;;;;;;11.73;7.27;;;7.80;99.90;;;;;;4863381;29;20326;-62
2022/04/24 02:17:06;;;;;;;9.67;6.90;;;7.80;99.90;;;;;;4856330;29;20250;-62
2022/04/24 02:19:34;;;;;;;8.07;6.67;;;7.70;99.90;;;;;;4861327;29;20239;-62
2022/04/24 02:22:02;;;;;;;12.20;7.33;;;7.70;99.90;;;;;;4860616;29;20246;-63
2022/04/24 02:24:30;;;;;;;10.37;7.27;;;7.60;99.90;;;;;;4853301;29;20254;-62
2022/04/24 02:26:58;;;;;;;9.70;7.20;;;7.70;99.90;;;;;;4848307;29;20607;-62
2022/04/24 02:29:27;;;;;;;10.30;6.70;;;7.60;99.90;;;;;;4858292;29;20241;-62
2022/04/24 02:31:57;;;;;;;8.80;6.67;;;7.60;99.90;;;;;;4843862;29;20329;-62
2022/04/24 02:34:26;;;;;;;10.73;7.00;;;7.60;99.90;;;;;;4853028;29;20253;-63
2022/04/24 02:36:54;;;;;;;9.60;5.97;;;7.50;99.90;;;;;;4848235;29;20610;-63
2022/04/24 02:39:22;;;;;;;9.33;6.77;;;7.60;99.90;;;;;;4846784;29;20295;-63
2022/04/24 02:41:50;;;;;;;9.80;7.20;;;7.50;99.90;;;;;;4857658;29;20317;-63
2022/04/24 02:44:22;;;;;;;8.77;6.43;;;7.50;99.90;;;;;;4853343;29;20244;-62
2022/04/24 02:46:50;;;;;;;8.40;6.53;;;7.60;99.90;;;;;;4858343;29;21177;-62
2022/04/24 02:49:20;;;;;;;8.57;6.20;;;7.60;99.90;;;;;;4852259;29;20252;-63
2022/04/24 02:51:48;;;;;;;9.87;5.73;;;7.50;99.90;;;;;;4860860;29;20325;-62
2022/04/24 02:54:16;;;;;;;8.40;5.77;;;7.50;99.90;;;;;;4852811;29;20303;-62
2022/04/24 02:56:44;;;;;;;7.83;5.30;;;7.50;99.90;;;;;;4849380;29;20251;-62
2022/04/24 02:59:15;;;;;;;6.57;4.93;;;7.60;99.90;;;;;;4857860;29;20328;-64
2022/04/24 03:01:44;;;;;;;6.53;5.67;;;7.60;99.90;;;;;;4854582;29;20234;-62
2022/04/24 03:04:13;;;;;;;8.87;4.97;;;7.60;99.90;;;;;;4852919;29;20247;-64
2022/04/24 03:06:42;;;;;;;8.33;5.67;;;7.50;99.90;;;;;;4858468;29;20250;-62
2022/04/24 03:09:11;;;;;;;9.70;5.83;;;7.50;99.90;;;;;;4858795;29;20269;-62
2022/04/24 03:11:39;;;;;;;5.93;4.73;;;7.50;99.90;;;;;;4859949;29;20325;-62
2022/04/24 03:14:07;;;;;;;7.60;4.50;;;7.50;99.90;;;;;;4866527;29;20251;-62
2022/04/24 03:16:35;;;;;;;6.27;4.77;;;7.50;99.90;;;;;;4850593;29;20330;-62
2022/04/24 03:19:03;;;;;;;6.47;4.40;;;7.50;99.90;;;;;;4860904;29;20258;-63
2022/04/24 03:21:32;;;;;;;6.90;4.70;;;7.50;99.90;;;;;;4853069;29;20254;-64
2022/04/24 03:24:01;;;;;;;6.10;4.00;;;7.50;99.90;;;;;;4859516;29;20369;-62
2022/04/24 03:26:29;;;;;;;5.47;3.90;;;7.50;99.90;;;;;;4852918;29;20242;-62
2022/04/24 03:28:58;;;;;;;7.03;4.10;;;7.50;99.90;;;;;;4864529;29;20243;-62
2022/04/24 03:31:26;;;;;;;6.20;4.53;;;7.50;99.90;;;;;;4852784;29;20660;-63
2022/04/24 03:33:54;;;;;;;6.50;3.77;;;7.40;99.90;;;;;;4864223;29;20324;-62
2022/04/24 03:36:22;;;;;;;6.13;3.93;;;7.40;99.90;;;;;;4853284;29;20726;-62
2022/04/24 03:38:50;;;;;;;5.07;3.60;;;7.30;99.90;;;;;;4855411;29;20243;-63
2022/04/24 03:41:20;;;;;;;4.50;3.77;;;7.30;99.90;;;;;;4849614;29;20783;-62
2022/04/24 03:43:48;;;;;;;7.73;3.90;;;7.30;99.90;;;;;;4844581;29;20660;-62
2022/04/24 03:46:16;;;;;;;6.10;3.80;;;7.40;99.90;;;;;;4854102;29;20325;-62
2022/04/24 03:48:45;;;;;;;5.27;3.80;;;7.30;99.90;;;;;;4861313;29;20242;-62
2022/04/24 03:51:13;;;;;;;5.67;4.17;;;7.30;99.90;;;;;;4861089;29;20272;-62
2022/04/24 03:53:41;;;;;;;4.50;3.70;;;7.20;99.90;;;;;;4859816;29;20312;-62
2022/04/24 03:56:09;;;;;;;6.13;3.37;;;7.20;99.90;;;;;;4849264;29;20723;-62
2022/04/24 03:58:39;;;;;;;6.13;4.23;;;7.10;99.90;;;;;;4849188;29;20706;-64
2022/04/24 04:01:07;;;;;;;5.83;3.80;;;7.10;99.90;;;;;;4853319;29;20245;-62
2022/04/24 04:03:35;;;;;;;6.17;3.83;;;7.10;99.90;;;;;;4847064;29;20711;-62
2022/04/24 04:06:03;;;;;;;7.07;3.73;;;7.10;99.90;;;;;;4852250;29;20270;-62
2022/04/24 04:08:31;;;;;;;5.07;3.57;;;7.10;99.90;;;;;;4860699;29;20247;-64
2022/04/24 04:10:59;;;;;;;7.20;3.83;;;7.10;99.90;;;;;;4855973;29;20254;-62
2022/04/24 04:13:27;;;;;;;7.00;3.93;;;7.10;99.90;;;;;;4854110;29;20242;-62
2022/04/24 04:15:57;;;;;;;6.97;4.03;;;7.00;99.90;;;;;;4851612;29;20277;-62
2022/04/24 04:18:27;;;;;;;8.10;4.43;;;6.90;99.90;;;;;;4855948;29;20246;-63
2022/04/24 04:20:56;;;;;;;5.20;3.47;;;6.90;99.90;;;;;;4847330;29;20712;-62
2022/04/24 04:23:24;;;;;;;5.97;4.20;;;6.90;99.90;;;;;;4847433;29;20299;-63
2022/04/24 04:25:52;;;;;;;7.13;4.37;;;6.90;99.90;;;;;;4853700;29;20247;-62
2022/04/24 04:28:20;;;;;;;8.03;4.77;;;6.90;99.90;;;;;;4854472;29;20247;-62
2022/04/24 04:30:48;;;;;;;7.27;4.37;;;6.90;99.90;;;;;;4844523;29;20251;-62
2022/04/24 04:33:18;;;;;;;8.27;4.60;;;7.00;99.90;;;;;;4841416;29;20250;-63
2022/04/24 04:35:46;;;;;;;8.23;4.53;;;7.00;99.90;;;;;;4857141;29;20602;-62
2022/04/24 04:38:15;;;;;;;7.67;4.83;;;7.00;99.90;;;;;;4870475;29;20275;-62
2022/04/24 04:40:43;;;;;;;6.83;4.90;;;7.00;99.90;;;;;;4859118;29;20329;-62
2022/04/24 04:43:11;;;;;;;7.37;4.87;;;7.00;99.90;;;;;;4852265;29;20243;-62
2022/04/24 04:45:39;;;;;;;8.60;4.80;;;7.10;99.90;;;;;;4852678;29;20301;-62
2022/04/24 04:48:08;;;;;;;8.37;5.20;;;7.10;99.90;;;;;;4858258;29;20247;-62
2022/04/24 04:50:38;;;;;;;7.77;5.00;;;7.10;99.90;;;;;;4848242;29;20268;-63
2022/04/24 04:53:06;;;;;;;8.37;5.50;;;7.10;99.90;;;;;;4852611;29;20329;-62
2022/04/24 04:55:34;;;;;;;6.67;5.00;;;7.20;99.90;;;;;;4858694;29;20269;-62
2022/04/24 04:58:08;;;;;;;10.80;5.70;;;7.30;99.90;;;;;;4861272;29;20256;-62
2022/04/24 05:00:37;;;;;;;8.70;5.43;;;7.30;99.90;;;;;;4850712;29;20262;-62
2022/04/24 05:03:05;;;;;;;11.10;6.07;;;7.20;99.90;;;;;;4844866;29;20243;-62
2022/04/24 05:05:33;;;;;;;10.23;5.70;;;7.30;99.90;;;;;;4851091;29;20667;-62
2022/04/24 05:08:03;;;;;;;10.97;6.40;;;7.30;99.90;;;;;;4857459;29;20634;-63
2022/04/24 05:10:31;;;;;;;9.50;6.47;;;7.40;99.90;;;;;;4863651;29;20243;-64
2022/04/24 05:12:59;;;;;;;11.07;6.30;;;7.40;99.90;;;;;;4851082;29;20705;-62
2022/04/24 05:15:27;;;;;;;7.80;6.27;;;7.40;99.90;;;;;;4849079;29;20246;-64
2022/04/24 05:17:55;;;;;;;7.47;5.63;;;7.50;99.90;;;;;;4858677;29;20238;-62
2022/04/24 05:20:24;;;;;;;10.37;7.37;;;7.60;99.90;;;;;;4850331;29;20254;-62
2022/04/24 05:22:52;;;;;;;9.73;6.30;;;7.70;99.90;;;;;;4843555;29;20250;-62
2022/04/24 05:25:22;;;;;;;11.57;7.30;;;7.80;99.90;;;;;;4862315;29;20249;-62
2022/04/24 05:27:50;;;;;;;15.43;6.90;;;8.00;99.90;;;;;;4844664;29;20247;-62
2022/04/24 05:30:18;;;;;;;13.87;7.07;;;8.10;99.90;;;;;;4856191;29;20246;-62
2022/04/24 05:32:49;;;;;;;10.33;6.90;;;8.10;99.90;;;;;;4858509;29;20318;-62
2022/04/24 05:35:18;;;;;;;11.10;7.73;;;8.30;99.90;;;;;;4848258;29;20271;-62
2022/04/24 05:37:47;;;;;;;11.33;7.13;;;8.30;99.90;;;;;;4858616;29;20246;-62
2022/04/24 05:40:16;;;;;;;14.23;7.43;;;8.30;99.90;;;;;;4849226;29;20727;-63
2022/04/24 05:42:50;;;;;;;9.97;7.27;;;8.40;99.90;;;;;;4857968;29;20233;-62
2022/04/24 05:45:22;;;;;;;11.77;7.70;;;8.50;99.90;;;;;;4858559;29;20254;-62
2022/04/24 05:47:50;;;;;;;10.00;6.93;;;8.50;99.90;;;;;;4867707;29;20261;-64
2022/04/24 05:50:18;;;;;;;11.07;7.27;;;8.60;99.90;;;;;;4865979;29;20245;-62
2022/04/24 05:52:46;;;;;;;11.87;7.47;;;8.70;99.90;;;;;;4859415;29;20248;-62
2022/04/24 05:55:14;;;;;;;16.70;7.30;;;8.70;99.90;;;;;;4868925;29;20769;-62
2022/04/24 05:57:42;;;;;;;12.40;7.30;;;8.90;99.90;;;;;;4876881;29;20237;-62
2022/04/24 06:00:13;;;;;;;11.03;7.10;;;9.00;99.90;;;;;;4866983;29;20342;-63
2022/04/24 06:02:42;;;;;;;11.30;7.10;;;9.20;99.90;;;;;;4841642;29;20728;-62
2022/04/24 06:05:11;;;;;;;10.37;6.57;;;9.20;99.90;;;;;;4849944;29;20246;-63
2022/04/24 06:07:40;;;;;;;12.30;7.40;;;9.30;99.90;;;;;;4843694;29;20334;-63
2022/04/24 06:10:11;;;;;;;10.57;5.90;;;9.40;99.90;;;;;;4852532;29;20338;-63
2022/04/24 06:12:50;;;;;;;9.43;6.53;;;9.50;99.90;;;;;;4867966;29;20730;-63
2022/04/24 06:15:21;;;;;;;11.23;6.87;;;9.70;99.90;;;;;;4851893;29;20294;-63
2022/04/24 06:17:51;;;;;;;7.70;6.00;;;9.80;99.90;;;;;;4856757;29;20238;-63
2022/04/24 06:20:21;;;;;;;8.27;6.00;;;9.90;99.90;;;;;;4856963;29;20243;-62
2022/04/24 06:22:51;;;;;;;7.97;5.90;;;9.90;99.90;;;;;;4849724;29;20248;-65
2022/04/24 06:25:21;;;;;;;9.17;6.30;;;10.00;99.90;;;;;;4841890;29;20277;-63
2022/04/24 06:27:50;;;;;;;8.60;5.77;;;10.10;99.90;;;;;;4844170;29;20239;-63
2022/04/24 06:30:22;;;;;;;7.43;5.93;;;10.10;99.90;;;;;;4841476;29;20738;-63
2022/04/24 06:32:50;;;;;;;9.23;6.10;;;10.20;99.90;;;;;;4842532;29;20301;-64
2022/04/24 06:35:19;;;;;;;7.20;5.20;;;10.30;99.90;;;;;;4851750;29;20333;-63
2022/04/24 06:37:48;;;;;;;9.17;5.77;;;10.50;99.90;;;;;;4857509;29;20325;-63
2022/04/24 06:40:19;;;;;;;8.30;5.30;;;10.50;99.90;;;;;;4858189;29;20247;-63
2022/04/24 06:42:52;;;;;;;7.87;5.07;;;10.50;99.90;;;;;;4854611;29;20255;-63
2022/04/24 06:45:27;;;;;;;6.73;4.80;;;10.70;99.90;;;;;;4849815;29;20236;-63
2022/04/24 06:47:56;;;;;;;8.37;5.40;;;10.80;99.90;;;;;;4851242;29;20266;-63
2022/04/24 06:50:25;;;;;;;8.63;4.53;;;10.90;99.90;;;;;;4844241;29;20705;-64
2022/04/24 06:52:59;;;;;;;5.40;3.93;;;10.90;99.90;;;;;;4857453;29;20728;-63
2022/04/24 06:55:27;;;;;;;7.67;4.80;;;10.80;99.90;;;;;;4848015;29;20334;-63
2022/04/24 06:57:56;;;;;;;8.03;3.80;;;11.10;99.90;;;;;;4845091;29;20236;-63
2022/04/24 07:00:27;;;;;;;5.80;3.90;;;11.20;99.90;;;;;;4857782;29;20697;-63
2022/04/24 07:03:16;;;;;;;6.40;3.60;;;11.30;99.90;;;;;;4852533;29;20338;-63
2022/04/24 07:05:44;;;;;;;6.83;3.60;;;11.30;99.90;;;;;;4852023;29;20320;-63
2022/04/24 07:08:12;;;;;;;5.97;4.10;;;11.40;99.90;;;;;;4859193;29;20231;-65
2022/04/24 07:10:41;;;;;;;5.53;3.70;;;11.30;99.90;;;;;;4860497;29;20300;-63
2022/04/24 07:13:09;;;;;;;4.30;3.87;;;11.60;99.90;;;;;;4876302;29;20250;-63
2022/04/24 07:15:39;;;;;;;4.63;3.00;;;11.50;99.90;;;;;;4863763;29;20235;-63
2022/04/24 07:18:10;;;;;;;3.67;3.27;;;11.70;99.90;;;;;;4858964;29;20309;-63
2022/04/24 07:20:39;;;;;;;8.93;4.00;;;12.00;99.90;;;;;;4859123;29;20245;-63
2022/04/24 07:23:07;;;;;;;4.47;3.27;;;12.30;99.90;;;;;;4859841;29;20246;-63
2022/04/24 07:25:37;;;;;;;4.23;3.00;;;12.20;99.90;;;;;;4866764;29;20246;-63
2022/04/24 07:28:06;;;;;;;4.63;3.20;;;12.30;99.90;;;;;;4860244;29;20286;-63
2022/04/24 07:30:34;;;;;;;4.90;3.53;;;12.20;99.90;;;;;;4856317;29;20330;-63
2022/04/24 07:33:04;;;;;;;4.67;3.33;;;12.40;99.90;;;;;;4867034;29;20248;-64
2022/04/24 07:35:33;;;;;;;5.67;3.17;;;12.50;99.90;;;;;;4876064;29;20247;-64
2022/04/24 07:38:01;;;;;;;6.43;3.27;;;12.50;99.90;;;;;;4862171;29;20736;-63
2022/04/24 07:40:33;;;;;;;4.87;2.97;;;12.40;99.90;;;;;;4871166;29;20712;-63
2022/04/24 07:43:03;;;;;;;5.73;3.50;;;12.60;99.90;;;;;;4877684;29;20324;-63
2022/04/24 07:45:34;;;;;;;4.43;2.73;;;13.00;99.90;;;;;;4870083;29;20254;-64
2022/04/24 07:48:05;;;;;;;3.63;3.10;;;12.90;99.90;;;;;;4865325;29;20248;-64
2022/04/24 07:50:35;;;;;;;4.60;2.83;;;12.80;99.90;;;;;;4878204;29;20319;-64
2022/04/24 07:53:04;;;;;;;7.10;3.77;;;12.80;99.90;;;;;;4878701;29;20300;-63
2022/04/24 07:55:32;;;;;;;3.90;3.23;;;13.10;99.90;;;;;;4861987;29;20731;-63
2022/04/24 07:58:01;;;;;;;4.63;3.10;;;13.00;99.90;;;;;;4855571;29;20258;-63
2022/04/24 08:00:31;;;;;;;3.83;2.90;;;13.00;99.90;;;;;;4850213;29;20305;-63
2022/04/24 08:03:01;;;;;;;4.53;3.10;;;13.00;99.90;;;;;;4842945;29;20656;-63
2022/04/24 08:05:33;;;;;;;3.30;2.90;;;13.30;99.90;;;;;;4850103;29;20244;-64
2022/04/24 08:08:03;;;;;;;4.70;2.73;;;13.50;99.90;;;;;;4857446;29;20709;-65
2022/04/24 08:10:36;;;;;;;4.33;2.90;;;13.70;99.90;;;;;;4851343;29;20584;-64
2022/04/24 08:13:05;;;;;;;5.30;2.97;;;13.30;99.90;;;;;;4860227;29;20253;-63
2022/04/24 08:15:41;;;;;;;6.43;3.37;;;13.30;99.90;;;;;;4861844;29;20666;-63
2022/04/24 08:18:10;;;;;;;4.63;3.00;;;13.60;99.90;;;;;;4862507;29;20257;-64
2022/04/24 08:20:41;;;;;;;4.13;3.00;;;13.80;99.90;;;;;;4841154;29;20246;-64
2022/04/24 08:23:10;;;;;;;4.50;2.80;;;14.10;99.90;;;;;;4872424;29;20272;-64
2022/04/24 08:25:39;;;;;;;4.30;2.90;;;14.40;99.90;;;;;;4858989;29;20334;-64
2022/04/24 08:28:10;;;;;;;5.00;3.03;;;14.40;99.90;;;;;;4857531;29;20246;-64
2022/04/24 08:30:40;;;;;;;4.67;2.90;;;14.20;99.90;;;;;;4872967;29;20705;-64
2022/04/24 08:33:08;;;;;;;3.60;2.87;;;14.00;99.90;;;;;;4859674;29;20264;-64
2022/04/24 08:35:37;;;;;;;3.30;2.87;;;14.20;99.90;;;;;;4856047;29;20243;-64
2022/04/24 08:38:07;;;;;;;4.70;3.27;;;14.50;99.90;;;;;;4842931;29;20250;-64
2022/04/24 08:40:35;;;;;;;2.70;2.33;;;14.30;99.90;;;;;;4848759;29;20611;-64
2022/04/24 08:43:03;;;;;;;3.43;3.10;;;14.60;99.90;;;;;;4841269;29;20376;-64
2022/04/24 08:45:32;;;;;;;4.30;2.83;;;14.80;99.90;;;;;;4862252;29;20254;-65
2022/04/24 08:48:02;;;;;;;4.73;3.23;;;14.90;99.90;;;;;;4854491;29;20258;-64
2022/04/24 08:50:32;;;;;;;4.07;2.93;;;15.00;99.90;;;;;;4859088;29;20242;-64
2022/04/24 08:53:01;;;;;;;4.33;2.97;;;14.70;99.90;;;;;;4856958;29;20318;-64
2022/04/24 08:55:32;;;;;;;4.33;3.07;;;14.40;99.90;;;;;;4849150;29;20302;-64
2022/04/24 08:58:01;;;;;;;3.63;2.80;;;14.40;99.90;;;;;;4840799;29;20306;-64
2022/04/24 09:00:30;;;;;;;4.17;2.77;;;14.40;99.90;;;;;;4848092;29;20245;-64
2022/04/24 09:02:58;;;;;;;6.53;2.73;;;14.70;99.90;;;;;;4840707;29;20247;-64
2022/04/24 09:05:28;;;;;;;3.27;2.83;;;14.70;99.90;;;;;;4848070;29;20239;-65
2022/04/24 09:08:06;;;;;;;5.33;2.50;;;14.80;99.90;;;;;;4847000;29;20298;-64
2022/04/24 09:10:57;;;;;;;3.60;3.10;;;14.90;99.90;;;;;;4844073;29;20280;-64
2022/04/24 09:13:27;;;;;;;3.40;2.67;;;15.40;99.90;;;;;;4843319;29;20238;-64
2022/04/24 09:15:55;;;;;;;4.00;2.57;;;15.20;99.90;;;;;;4847484;29;20605;-64
2022/04/24 09:18:23;;;;;;;6.60;2.80;;;15.20;99.90;;;;;;4863193;29;20627;-65
2022/04/24 09:20:56;;;;;;;3.70;2.57;;;15.20;99.90;;;;;;4850234;29;20289;-64
2022/04/24 09:23:34;;;;;;;4.73;3.00;;;15.60;99.90;;;;;;4850010;29;20329;-65
2022/04/24 09:26:04;;;;;;;4.23;2.77;;;15.90;99.90;;;;;;4865011;29;20290;-64
2022/04/24 09:28:39;;;;;;;5.43;2.70;;;16.10;99.90;;;;;;4865438;29;20266;-65
2022/04/24 09:31:08;;;;;;;4.13;2.70;;;16.40;99.90;;;;;;4839567;29;20326;-64
2022/04/24 09:33:38;;;;;;;5.90;2.97;;;16.00;99.90;;;;;;4853138;29;20241;-64
2022/04/24 09:36:07;;;;;;;3.10;2.60;;;15.80;99.90;;;;;;4862584;29;20706;-65
2022/04/24 09:38:41;;;;;;;2.60;2.30;;;15.40;99.90;;;;;;4861976;29;20239;-65
2022/04/24 09:41:21;;;;;;;4.83;2.67;;;15.60;99.90;;;;;;4864783;29;20254;-65
2022/04/24 09:43:50;;;;;;;5.00;2.70;;;15.70;99.90;;;;;;4873911;29;20689;-65
2022/04/24 09:46:26;;;;;;;3.10;2.80;;;15.80;99.90;;;;;;4863204;29;20670;-64
2022/04/24 09:48:58;;;;;;;3.87;2.80;;;15.90;99.90;;;;;;4853883;29;20243;-64
2022/04/24 09:51:27;;;;;;;4.10;2.60;;;16.00;99.90;;;;;;4865351;29;20254;-65
2022/04/24 09:54:00;;;;;;;6.13;2.67;;;16.10;99.90;;;;;;4869590;29;20287;-65
2022/04/24 09:56:30;;;;;;;3.50;2.67;;;16.20;99.90;;;;;;4865836;29;20266;-65
2022/04/24 09:58:59;;;;;;;3.70;2.40;;;16.20;99.90;;;;;;4864082;29;20249;-65
2022/04/24 10:01:29;;;;;;;4.57;2.60;;;16.20;99.90;;;;;;4865475;29;20246;-65
2022/04/24 10:03:58;;;;;;;3.53;2.53;;;16.10;99.90;;;;;;4866883;29;20609;-65
2022/04/24 10:06:26;;;;;;;4.37;2.77;;;15.90;99.90;;;;;;4868860;29;20753;-65
2022/04/24 10:08:55;;;;;;;4.80;2.60;;;16.10;99.90;;;;;;4870758;29;20242;-65
2022/04/24 10:11:24;;;;;;;3.93;2.50;;;15.70;99.90;;;;;;4865880;29;20246;-65
2022/04/24 10:13:58;;;;;;;2.77;2.43;;;15.60;99.90;;;;;;4863803;29;20237;-65
2022/04/24 10:16:51;;;;;;;4.30;2.53;;;15.50;99.90;;;;;;4871352;29;20237;-65
2022/04/24 10:19:33;;;;;;;3.27;2.40;;;15.60;99.90;;;;;;4865932;29;20722;-65
2022/04/24 10:22:07;;;;;;;4.60;2.33;;;15.80;99.90;;;;;;4865809;29;20333;-65
2022/04/24 10:24:42;;;;;;;3.83;2.63;;;16.10;99.90;;;;;;4873708;29;20798;-65
2022/04/24 10:27:12;;;;;;;3.37;2.20;;;16.20;99.90;;;;;;4868063;29;20666;-65
2022/04/24 10:29:52;;;;;;;2.90;2.50;;;16.20;99.90;;;;;;4869311;29;20745;-65
2022/04/24 10:32:27;;;;;;;3.80;2.13;;;16.50;99.90;;;;;;4877127;29;20797;-65
2022/04/24 10:34:55;;;;;;;3.07;2.40;;;16.30;99.90;;;;;;4872209;29;20272;-65
2022/04/24 10:37:29;;;;;;;5.07;2.80;;;16.00;99.90;;;;;;4873667;29;20242;-65
2022/04/24 10:40:00;;;;;;;4.23;2.70;;;16.00;99.90;;;;;;4868056;29;20333;-65
2022/04/24 10:42:33;;;;;;;3.13;2.60;;;15.90;99.90;;;;;;4856101;29;20647;-65
2022/04/24 10:45:08;;;;;;;4.37;2.90;;;16.20;99.90;;;;;;4861361;29;20242;-65
2022/04/24 10:47:45;;;;;;;4.80;2.67;;;16.30;99.90;;;;;;4864220;29;20790;-65
2022/04/24 10:50:14;;;;;;;3.80;2.47;;;16.70;99.90;;;;;;4845330;29;20661;-65
2022/04/24 10:52:44;;;;;;;5.93;2.53;;;16.60;99.90;;;;;;4845663;29;20302;-65
2022/04/24 10:55:14;;;;;;;3.07;2.17;;;16.10;99.90;;;;;;4861001;29;20242;-65
2022/04/24 10:57:43;;;;;;;4.10;2.50;;;15.80;99.90;;;;;;4859050;29;20321;-65
2022/04/24 11:00:22;;;;;;;5.07;2.60;;;15.70;99.90;;;;;;4869359;29;20253;-65
2022/04/24 11:02:52;;;;;;;4.20;2.60;;;15.90;99.90;;;;;;4876188;29;20262;-67
2022/04/24 11:05:23;;;;;;;4.53;2.40;;;16.10;99.90;;;;;;4878622;29;20241;-65
2022/04/24 11:08:02;;;;;;;3.97;2.37;;;16.10;99.90;;;;;;4872597;29;20235;-65
2022/04/24 11:10:38;;;;;;;2.93;2.40;;;16.10;99.90;;;;;;4867374;29;20237;-65
2022/04/24 11:13:09;;;;;;;5.60;2.57;;;16.00;99.90;;;;;;4880567;29;20602;-65
2022/04/24 11:15:44;;;;;;;5.63;2.73;;;15.80;99.90;;;;;;4874863;29;20258;-65
2022/04/24 11:18:23;;;;;;;4.37;2.47;;;16.00;99.90;;;;;;4868488;29;20249;-66
2022/04/24 11:20:56;;;;;;;6.13;2.27;;;15.90;99.90;;;;;;4860934;29;20266;-65
2022/04/24 11:23:27;;;;;;;4.00;2.60;;;15.80;99.90;;;;;;4866896;29;20245;-65
2022/04/24 11:25:57;;;;;;;4.60;2.40;;;15.10;99.90;;;;;;4864989;29;20728;-64
2022/04/24 11:28:36;;;;;;;3.70;2.27;;;15.00;99.90;;;;;;4856345;29;20334;-65
2022/04/24 11:31:14;;;;;;;3.43;2.20;;;15.40;99.90;;;;;;4852780;29;20242;-65
2022/04/24 11:33:53;;;;;;;5.67;2.80;;;15.80;99.90;;;;;;4853808;29;20242;-65
2022/04/24 11:36:23;;;;;;;4.57;2.70;;;16.20;99.90;;;;;;4856273;29;20279;-67
2022/04/24 11:38:52;;;;;;;4.17;2.40;;;15.80;99.90;;;;;;4854434;29;20235;-66
2022/04/24 11:41:21;;;;;;;4.30;2.57;;;16.30;99.90;;;;;;4849571;29;20251;-66
2022/04/24 11:43:50;;;;;;;4.17;2.50;;;16.20;99.90;;;;;;4846096;29;20664;-67
2022/04/24 11:51:53;;;;;;;4.00;2.77;;;14.70;99.90;;;;;;4868547;29;20246;-65
2022/04/24 11:54:22;;;;;;;4.17;2.60;;;14.90;99.90;;;;;;4871091;29;20257;-66
2022/04/24 11:56:51;;;;;;;3.90;2.90;;;15.10;99.90;;;;;;4876375;29;20241;-65
2022/04/24 11:59:21;;;;;;;3.27;2.10;;;15.40;99.90;;;;;;4875426;29;20265;-65
2022/04/24 12:01:57;;;;;;;4.17;2.57;;;15.60;99.90;;;;;;4874829;29;20257;-66
2022/04/24 12:04:31;;;;;;;4.30;2.83;;;15.50;99.90;;;;;;4871196;29;20264;-64
2022/04/24 12:07:04;;;;;;;6.77;2.80;;;15.10;99.90;;;;;;4878163;29;20249;-64
2022/04/24 12:09:33;;;;;;;5.53;2.87;;;14.80;99.90;;;;;;4870026;29;20735;-64
2022/04/24 12:12:09;;;;;;;4.00;2.90;;;14.70;99.90;;;;;;4873822;29;20246;-64
2022/04/24 12:14:38;;;;;;;3.87;2.40;;;14.60;99.90;;;;;;4874075;29;20662;-66
2022/04/24 12:17:10;;;;;;;4.77;3.17;;;14.60;99.90;;;;;;4876290;29;20245;-64
2022/04/24 12:19:41;;;;;;;5.40;2.87;;;14.60;99.90;;;;;;4869872;29;20239;-64
2022/04/24 12:22:11;;;;;;;5.47;3.23;;;14.60;99.90;;;;;;4867080;29;20270;-64
2022/04/24 12:24:44;;;;;;;3.87;3.00;;;14.70;99.90;;;;;;4874305;29;20333;-64
2022/04/24 12:27:14;;;;;;;6.43;3.40;;;14.60;99.90;;;;;;4874622;29;20245;-64
2022/04/24 12:29:44;;;;;;;5.40;3.30;;;14.70;99.90;;;;;;4869522;29;20234;-64
2022/04/24 12:32:14;;;;;;;6.37;3.07;;;14.70;99.90;;;;;;4862919;29;20242;-63
2022/04/24 12:34:44;;;;;;;5.13;3.07;;;14.70;99.90;;;;;;4864718;29;20283;-64
2022/04/24 12:37:12;;;;;;;4.90;3.17;;;14.50;99.90;;;;;;4875367;29;20260;-62
2022/04/24 12:39:41;;;;;;;4.33;3.20;;;14.40;99.90;;;;;;4867347;29;20329;-62
2022/04/24 12:42:15;;;;;;;4.47;3.10;;;14.20;99.90;;;;;;4861808;29;20245;-62
2022/04/24 12:44:43;;;;;;;4.50;3.43;;;14.00;99.90;;;;;;4868573;29;20736;-62
2022/04/24 12:47:11;;;;;;;6.83;3.30;;;14.30;99.90;;;;;;4875017;29;20242;-63
2022/04/24 12:49:43;;;;;;;7.23;4.07;;;14.40;99.90;;;;;;4868338;29;20241;-62
2022/04/24 12:52:14;;;;;;;4.30;3.27;;;14.30;99.90;;;;;;4875518;29;20241;-62
2022/04/24 12:54:43;;;;;;;5.50;3.30;;;14.30;99.90;;;;;;4867852;29;20337;-62
2022/04/24 12:57:11;;;;;;;5.20;3.20;;;14.20;99.90;;;;;;4873377;29;20234;-62
2022/04/24 12:59:40;;;;;;;6.13;3.57;;;14.40;99.90;;;;;;4868385;29;20782;-62
2022/04/24 13:02:09;;;;;;;6.53;3.90;;;14.50;99.90;;;;;;4865123;29;20589;-62
2022/04/24 13:04:39;;;;;;;6.93;3.50;;;14.20;99.90;;;;;;4869043;29;20325;-62
2022/04/24 13:07:10;;;;;;;6.90;3.47;;;14.10;99.90;;;;;;4873711;29;20249;-62
2022/04/24 13:09:40;;;;;;;5.03;3.33;;;14.40;99.90;;;;;;4870942;29;20238;-62